Data for 05/07/2018

Time Sea-Level Adjusted Pressure Absolute Pressure Temperature Relative Humidity Dew Point   
(mb) (inHg) (mb) (inHg) (C) (F) (%) (C) (F)
00:05 1019 30.09 848 25.04 12.9 55.2 71 7.8 46
00:10 1019 30.09 848 25.04 12.5 54.6 71 7.5 45.5
00:15 1019 30.09 848 25.04 12.3 54.2 72 7.4 45.3
00:20 1019 30.09 848 25.04 12.2 54 71 7.3 45.1
00:25 1019 30.09 848 25.04 12.1 53.7 75 7.8 46
00:30 1019 30.09 849 25.07 11.6 52.9 77 7.8 46
00:35 1020 30.12 849 25.07 11.5 52.6 78 7.7 45.9
00:40 1020 30.12 849 25.07 11.3 52.3 78 7.6 45.6
00:45 1020 30.12 849 25.07 11.2 52.2 76 7.1 44.9
00:50 1020 30.12 849 25.07 11.2 52.2 76 7.1 44.8
00:55 1020 30.12 849 25.07 11.2 52.1 76 7.1 44.8
01:00 1020 30.12 850 25.1 11 51.8 76 7 44.6
01:05 1020 30.12 850 25.1 10.9 51.7 76 6.8 44.3
01:10 1020 30.12 850 25.1 10.8 51.5 76 6.9 44.3
01:15 1020 30.12 850 25.1 10.7 51.2 76 6.7 44.1
01:20 1021 30.15 850 25.1 10.7 51.2 76 6.6 43.8
01:25 1020 30.12 850 25.1 10.7 51.2 75 6.4 43.5
01:30 1021 30.15 850 25.1 10.7 51.2 75 6.4 43.6
01:35 1021 30.15 850 25.1 10.5 51 76 6.5 43.8
01:40 1021 30.15 850 25.1 10.4 50.7 77 6.5 43.6
01:45 1021 30.15 850 25.1 10.3 50.5 77 6.4 43.5
01:50 1021 30.15 850 25.1 10.1 50.3 77 6.3 43.3
01:55 1021 30.15 850 25.1 10.2 50.4 75 6 42.8
02:00 1021 30.15 850 25.1 10.3 50.5 75 6.1 43
02:05 1021 30.15 850 25.1 10.2 50.3 76 6.1 43
02:10 1021 30.15 850 25.1 10.1 50.3 76 6.1 42.9
02:15 1021 30.15 850 25.1 10.1 50.2 76 6.2 43.1
02:20 1021 30.15 850 25.1 10.1 50.3 77 6.2 43.2
02:25 1021 30.15 850 25.1 10.2 50.4 76 6.2 43.2
02:30 1021 30.15 850 25.1 10.3 50.6 75 6.2 43.1
02:35 1021 30.15 850 25.1 10.4 50.7 74 5.9 42.6
02:40 1021 30.15 850 25.1 10.3 50.5 74 5.8 42.4
02:45 1021 30.15 850 25.1 10.2 50.3 74 5.8 42.5
02:50 1021 30.15 850 25.1 10.2 50.4 74 5.8 42.5
02:55 1021 30.15 850 25.1 10.3 50.6 73 5.8 42.5
03:00 1021 30.15 850 25.1 10.5 50.8 73 5.8 42.4
03:05 1021 30.15 850 25.1 10.5 51 73 5.8 42.5
03:10 1021 30.15 850 25.1 10.4 50.7 73 5.8 42.4
03:15 1021 30.15 850 25.1 10 50.1 74 5.7 42.3
03:20 1021 30.15 850 25.1 9.6 49.4 75 5.5 41.9
03:25 1021 30.15 850 25.1 9.5 49.2 75 5.4 41.7
03:30 1021 30.15 850 25.1 9.5 49.1 76 5.4 41.8
03:35 1021 30.15 850 25.1 9.2 48.6 76 5.3 41.6
03:40 1020 30.12 850 25.1 9.5 49.1 75 5.2 41.4
03:45 1020 30.12 850 25.1 9.5 49.1 74 5.2 41.3
03:50 1020 30.12 850 25.1 9.5 49.2 75 5.3 41.6
03:55 1020 30.12 850 25.1 8.8 47.8 79 5.3 41.6
04:00 1020 30.12 850 25.1 8.4 47.2 79 5 41
04:05 1020 30.12 850 25.1 8.8 47.8 77 4.9 40.8
04:10 1020 30.12 850 25.1 8.8 47.9 76 4.8 40.7
04:15 1020 30.12 850 25.1 8.8 47.9 77 5 40.9
04:20 1020 30.12 850 25.1 8.7 47.7 77 4.9 40.9
04:25 1020 30.12 850 25.1 8.6 47.6 77 4.9 40.8
04:30 1020 30.12 850 25.1 8.4 47.1 78 4.9 40.7
04:35 1020 30.12 849 25.07 8.1 46.6 78 4.5 40
04:40 1020 30.12 849 25.07 7.8 46 78 4.2 39.6
04:45 1020 30.12 849 25.07 8 46.4 78 4.3 39.8
04:50 1020 30.12 849 25.07 8.1 46.5 77 4.3 39.8
04:55 1020 30.12 849 25.07 8 46.3 77 4.2 39.6
05:00 1020 30.12 849 25.07 7.7 45.9 79 4.3 39.8
05:05 1020 30.12 849 25.07 7.7 45.8 78 4.2 39.5
05:10 1020 30.12 849 25.07 7.6 45.8 78 4 39.2
05:15 1020 30.12 849 25.07 7.5 45.6 80 4.3 39.8
05:20 1020 30.12 849 25.07 7.3 45.1 83 4.6 40.4
05:25 1020 30.12 849 25.07 7.4 45.3 83 4.8 40.6
05:30 1020 30.12 849 25.07 7.6 45.6 82 4.8 40.6
05:35 1020 30.12 849 25.07 7.8 46 82 4.9 40.8
05:40 1020 30.12 849 25.07 7.8 46 82 5 40.9
05:45 1020 30.12 849 25.07 7.7 45.9 83 5 40.9
05:50 1020 30.12 849 25.07 7.6 45.7 83 5 40.9
05:55 1020 30.12 849 25.07 7.6 45.6 83 4.8 40.7
06:00 1020 30.12 849 25.07 7.4 45.2 83 4.6 40.3
06:05 1020 30.12 849 25.07 7.1 44.8 83 4.5 40.1
06:10 1020 30.12 849 25.07 7 44.5 84 4.5 40
06:15 1020 30.12 849 25.07 6.9 44.4 85 4.5 40.1
06:20 1020 30.12 849 25.07 6.9 44.4 85 4.6 40.3
06:25 1020 30.12 849 25.07 7 44.6 85 4.7 40.5
06:30 1020 30.12 849 25.07 7.3 45.2 83 4.7 40.4
06:35 1020 30.12 849 25.07 7.5 45.5 81 4.5 40.1
06:40 1020 30.12 849 25.07 7.9 46.1 79 4.5 40.1
06:45 1020 30.12 849 25.07 8.2 46.8 79 4.7 40.5
06:50 1020 30.12 849 25.07 8.7 47.6 77 4.9 40.8
06:55 1020 30.12 849 25.07 8.9 48.1 76 4.9 40.8
07:00 1020 30.12 849 25.07 9.2 48.5 75 4.9 40.9
07:05 1020 30.12 849 25.07 9.4 48.9 74 5 41
07:10 1020 30.12 849 25.07 9.7 49.5 73 5.1 41.1
07:15 1020 30.12 849 25.07 9.8 49.6 73 5.1 41.3
07:20 1020 30.12 849 25.07 9.8 49.6 72 4.9 40.9
07:25 1020 30.12 850 25.1 10.1 50.2 70 4.9 40.9
07:30 1020 30.12 850 25.1 10.4 50.6 70 5.1 41.2
07:35 1020 30.12 850 25.1 10.1 50.1 71 5 41.1
07:40 1020 30.12 850 25.1 10.1 50.2 71 5 41.1
07:45 1021 30.15 850 25.1 10.6 51 70 5.3 41.6
07:50 1021 30.15 850 25.1 11 51.7 69 5.4 41.8
07:55 1021 30.15 850 25.1 11 51.7 69 5.6 42.1
08:00 1021 30.15 850 25.1 10.4 50.7 71 5.4 41.7
08:05 1021 30.15 850 25.1 10.6 51 70 5.4 41.6
08:10 1021 30.15 850 25.1 11 51.8 70 5.7 42.3
08:15 1021 30.15 850 25.1 11.8 53.3 68 6.1 43
08:20 1021 30.15 850 25.1 11.9 53.4 70 6.6 43.8
08:25 1021 30.15 850 25.1 11.8 53.2 70 6.6 43.8
08:30 1021 30.15 850 25.1 11.9 53.4 70 6.6 43.8
08:35 1021 30.15 850 25.1 12.1 53.9 69 6.7 44
08:40 1021 30.15 850 25.1 12 53.6 70 6.7 44.1
08:45 1021 30.15 850 25.1 12.1 53.7 71 6.9 44.5
08:50 1021 30.15 850 25.1 12.3 54.1 70 7.1 44.7
08:55 1021 30.15 850 25.1 12.3 54.2 69 6.8 44.3
09:00 1021 30.15 850 25.1 12.8 55.1 67 6.9 44.5
09:05 1021 30.15 850 25.1 13.3 55.9 65 6.9 44.4
09:10 1021 30.15 850 25.1 13.5 56.4 66 7.3 45.2
09:15 1021 30.15 850 25.1 13.2 55.8 65 6.9 44.4
09:20 1021 30.15 850 25.1 13.1 55.5 67 7.2 44.9
09:25 1021 30.15 850 25.1 12.7 54.9 67 6.9 44.3
09:30 1021 30.15 850 25.1 12.8 55.1 65 6.4 43.6
09:35 1021 30.15 850 25.1 13.4 56 64 6.8 44.2
09:40 1021 30.15 850 25.1 14 57.1 62 7 44.6
09:45 1021 30.15 850 25.1 13.9 57.1 63 7.1 44.8
09:50 1021 30.15 850 25.1 13.9 56.9 62 6.8 44.2
09:55 1021 30.15 850 25.1 13.8 56.9 66 7.6 45.7
10:00 1021 30.15 850 25.1 12.9 55.2 67 6.9 44.4
10:05 1021 30.15 850 25.1 13.2 55.8 65 6.8 44.2
10:10 1021 30.15 850 25.1 13.5 56.2 63 6.6 43.8
10:15 1021 30.15 850 25.1 13.5 56.2 62 6.4 43.6
10:20 1021 30.15 850 25.1 13.5 56.3 61 6.2 43.1
10:25 1021 30.15 850 25.1 13.5 56.4 61 6.3 43.3
10:30 1021 30.15 850 25.1 13.5 56.4 63 6.7 44.1
10:35 1021 30.15 850 25.1 13.7 56.7 63 6.9 44.4
10:40 1021 30.15 850 25.1 13.6 56.5 61 6.4 43.5
10:45 1021 30.15 850 25.1 13.7 56.6 62 6.5 43.7
10:50 1021 30.15 850 25.1 13.9 57 60 6.4 43.6
10:55 1021 30.15 850 25.1 14.7 58.4 56 6.1 43
11:00 1021 30.15 850 25.1 14.8 58.7 56 6.3 43.4
11:05 1021 30.15 850 25.1 15.4 59.6 56 6.6 43.9
11:10 1021 30.15 850 25.1 15.1 59.2 55 6.2 43.1
11:15 1021 30.15 850 25.1 15.3 59.5 55 6.5 43.7
11:20 1021 30.15 851 25.13 15.5 60 53 6.1 42.9
11:25 1021 30.15 851 25.13 16.2 61.2 50 6 42.8
11:30 1021 30.15 851 25.13 16.3 61.4 53 6.8 44.2
11:35 1021 30.15 851 25.13 16.1 61 52 6.3 43.3
11:40 1021 30.15 851 25.13 16.2 61.1 53 6.6 43.8
11:45 1021 30.15 851 25.13 16.8 62.3 51 6.6 43.9
11:50 1021 30.15 851 25.13 16.9 62.5 51 6.7 44.1
11:55 1021 30.15 850 25.1 17 62.7 48 6.1 42.9
12:00 1021 30.15 850 25.1 17.7 63.8 47 6.5 43.7
12:05 1021 30.15 850 25.1 17.9 64.1 47 6.6 43.9
12:10 1021 30.15 850 25.1 18 64.5 47 6.6 43.9
12:15 1021 30.15 850 25.1 17.6 63.7 47 6.2 43.1
12:20 1021 30.15 850 25.1 17.5 63.4 45 5.5 41.9
12:25 1021 30.15 850 25.1 17.4 63.2 43 4.8 40.6
12:30 1021 30.15 850 25.1 17.5 63.5 44 5.3 41.6
12:35 1021 30.15 850 25.1 18 64.3 43 5.4 41.7
12:40 1021 30.15 850 25.1 17.9 64.1 43 5.3 41.5
12:45 1021 30.15 850 25.1 17.4 63.2 41 4 39.2
12:50 1021 30.15 850 25.1 17.5 63.5 41 4.2 39.5
12:55 1021 30.15 850 25.1 17.2 63 42 4.4 39.9
13:00 1021 30.15 850 25.1 17.7 63.9 37 3.1 37.6
13:05 1021 30.15 850 25.1 18.1 64.5 40 4.3 39.7
13:10 1021 30.15 850 25.1 18.3 65 38 3.7 38.7
13:15 1021 30.15 850 25.1 18.9 66.1 35 3.3 38
13:20 1021 30.15 850 25.1 19.4 66.9 36 4.2 39.6
13:25 1021 30.15 850 25.1 19.9 67.8 34 3.7 38.6
13:30 1021 30.15 850 25.1 20.1 68.2 32 3.2 37.7
13:35 1021 30.15 850 25.1 19.3 66.7 37 4.5 40.2
13:40 1021 30.15 850 25.1 18 64.3 38 3.7 38.7
13:45 1021 30.15 850 25.1 17.8 64 41 4.4 39.9
13:50 1021 30.15 850 25.1 17.3 63.1 46 5.7 42.2
13:55 1021 30.15 850 25.1 16.5 61.7 52 6.6 43.8
14:00 1021 30.15 850 25.1 15.9 60.5 57 7.4 45.3
14:05 1021 30.15 850 25.1 15.2 59.4 51 5.2 41.3
14:10 1021 30.15 850 25.1 15.2 59.4 51 5.3 41.5
14:15 1021 30.15 850 25.1 15.4 59.7 51 5.4 41.6
14:20 1021 30.15 850 25.1 16.1 60.9 46 4.6 40.3
14:25 1021 30.15 850 25.1 16.4 61.5 48 5.3 41.6
14:30 1021 30.15 850 25.1 16.5 61.7 48 5.6 42.1
14:35 1021 30.15 850 25.1 16.4 61.6 47 5.1 41.1
14:40 1021 30.15 850 25.1 16.6 61.8 47 5.2 41.3
14:45 1021 30.15 850 25.1 16.7 62 44 4.4 39.9
14:50 1021 30.15 850 25.1 16.7 62 45 4.8 40.6
14:55 1021 30.15 850 25.1 16.7 62 43 4.3 39.8
15:00 1021 30.15 850 25.1 16.6 61.9 45 4.7 40.4
15:05 1021 30.15 850 25.1 16.6 61.8 42 3.8 38.8
15:10 1021 30.15 850 25.1 17 62.6 40 3.5 38.4
15:15 1021 30.15 850 25.1 17.1 62.9 42 4.1 39.5
15:20 1021 30.15 851 25.13 16.8 62.3 42 3.9 39
15:25 1021 30.15 851 25.13 17 62.7 41 3.8 38.8
15:30 1021 30.15 850 25.1 17 62.6 42 4.1 39.4
15:35 1021 30.15 851 25.13 17.1 62.8 43 4.6 40.2
15:40 1021 30.15 851 25.13 16.4 61.6 46 4.7 40.5
15:45 1021 30.15 850 25.1 16 60.7 50 5.5 42
15:50 1021 30.15 850 25.1 15.9 60.6 49 5.3 41.6
15:55 1021 30.15 850 25.1 16.5 61.6 44 4.4 39.9
16:00 1021 30.15 850 25.1 17.2 63 39 3.3 38
16:05 1021 30.15 850 25.1 17.9 64.1 37 2.9 37.3
16:10 1021 30.15 850 25.1 18.2 64.7 37 3.2 37.7
16:15 1021 30.15 850 25.1 18.1 64.6 37 3.2 37.8
16:20 1021 30.15 850 25.1 17.9 64.2 39 3.8 38.8
16:25 1021 30.15 850 25.1 17.7 63.9 37 3 37.4
16:30 1021 30.15 850 25.1 17.9 64.1 38 3.6 38.5
16:35 1021 30.15 850 25.1 17.6 63.6 39 3.6 38.5
16:40 1021 30.15 850 25.1 17.5 63.5 38 3.1 37.5
16:45 1021 30.15 850 25.1 17.5 63.6 37 2.7 36.9
16:50 1021 30.15 850 25.1 17.6 63.7 37 2.7 36.8
16:55 1021 30.15 850 25.1 17.6 63.7 37 3 37.4
17:00 1021 30.15 850 25.1 17.7 63.8 37 3 37.5
17:05 1021 30.15 850 25.1 17.7 63.8 37 3 37.5
17:10 1021 30.15 850 25.1 17.4 63.2 37 2.5 36.6
17:15 1021 30.15 850 25.1 17.2 62.9 39 3.1 37.6
17:20 1021 30.15 850 25.1 17.2 63 39 3.1 37.6
17:25 1021 30.15 850 25.1 17.2 63 38 2.9 37.2
17:30 1021 30.15 850 25.1 17.2 63 37 2.7 36.8
17:35 1021 30.15 850 25.1 17.3 63.1 38 3 37.3
17:40 1021 30.15 850 25.1 17.4 63.3 38 3 37.3
17:45 1021 30.15 850 25.1 17.6 63.6 37 2.7 36.9
17:50 1021 30.15 850 25.1 17.6 63.7 38 3.2 37.7
17:55 1021 30.15 850 25.1 17 62.6 40 3.5 38.2
18:00 1021 30.15 850 25.1 16.9 62.4 40 3.2 37.8
18:05 1021 30.15 850 25.1 16.9 62.4 38 2.8 37
18:10 1021 30.15 850 25.1 17.1 62.8 37 2.5 36.6
18:15 1021 30.15 850 25.1 17.5 63.5 37 2.7 36.9
18:20 1021 30.15 850 25.1 17.1 62.8 38 2.6 36.8
18:25 1021 30.15 850 25.1 16.7 62 40 3 37.4
18:30 1021 30.15 850 25.1 16.3 61.3 42 3.4 38.2
18:35 1021 30.15 850 25.1 16.2 61.2 40 2.8 37.1
18:40 1021 30.15 850 25.1 16.2 61.1 40 2.7 36.9
18:45 1021 30.15 850 25.1 16 60.9 40 2.6 36.8
18:50 1021 30.15 850 25.1 16.1 60.9 41 2.8 37.1
18:55 1021 30.15 850 25.1 16.1 60.9 42 3.1 37.6
19:00 1021 30.15 850 25.1 16.1 60.9 42 3.3 37.9
19:05 1021 30.15 850 25.1 15.9 60.7 42 3.3 37.9
19:10 1021 30.15 850 25.1 15.7 60.2 43 3.4 38.1
19:15 1021 30.15 850 25.1 15.6 60 44 3.5 38.2
19:20 1021 30.15 851 25.13 15.4 59.6 45 3.5 38.2
19:25 1021 30.15 851 25.13 15.4 59.6 45 3.5 38.4
19:30 1022 30.18 851 25.13 15.4 59.7 44 3.2 37.8
19:35 1022 30.18 851 25.13 15.2 59.4 44 3.1 37.6
19:40 1022 30.18 851 25.13 15.1 59.2 45 3.4 38.1
19:45 1022 30.18 851 25.13 15.1 59.1 46 3.6 38.6
19:50 1022 30.18 851 25.13 15 59 48 4 39.3
19:55 1022 30.18 851 25.13 14.9 58.9 46 3.6 38.5
20:00 1022 30.18 851 25.13 14.9 58.8 47 3.7 38.7
20:05 1022 30.18 851 25.13 14.8 58.6 47 3.8 38.8
20:10 1022 30.18 851 25.13 14.7 58.4 47 3.7 38.6
20:15 1022 30.18 851 25.13 14.6 58.3 47 3.6 38.4
20:20 1022 30.18 851 25.13 14.6 58.3 47 3.6 38.6
20:25 1022 30.18 851 25.13 14.5 58 47 3.4 38.1
20:30 1022 30.18 851 25.13 14.3 57.8 48 3.4 38.1
20:35 1022 30.18 851 25.13 14.2 57.5 48 3.5 38.3
20:40 1022 30.18 851 25.13 14.1 57.4 49 3.5 38.3
20:45 1022 30.18 852 25.16 14.1 57.4 49 3.7 38.6
20:50 1022 30.18 852 25.16 14.1 57.4 49 3.7 38.6
20:55 1022 30.18 852 25.16 14 57.3 50 3.8 38.9
21:00 1023 30.21 852 25.16 13.9 57 51 3.9 39.1
21:05 1023 30.21 852 25.16 13.8 56.8 51 4 39.1
21:10 1023 30.21 852 25.16 13.6 56.5 52 3.9 39
21:15 1023 30.21 852 25.16 13.6 56.5 53 4.3 39.8
21:20 1023 30.21 852 25.16 13.6 56.4 52 4 39.2
21:25 1023 30.21 852 25.16 13.5 56.3 53 4.2 39.6
21:30 1023 30.21 852 25.16 13.3 56 54 4.2 39.6
21:35 1023 30.21 852 25.16 13.1 55.7 56 4.5 40.2
21:40 1023 30.21 852 25.16 12.9 55.3 56 4.5 40.2
21:45 1023 30.21 852 25.16 12.9 55.2 56 4.4 39.9
21:50 1023 30.21 852 25.16 12.8 55 55 4.1 39.4
21:55 1023 30.21 852 25.16 12.8 55.1 55 4.2 39.6
22:00 1023 30.21 852 25.16 12.8 55.1 55 4.2 39.5
22:05 1023 30.21 852 25.16 12.8 55 56 4.3 39.8
22:10 1023 30.21 852 25.16 12.7 54.9 56 4.3 39.8
22:15 1023 30.21 852 25.16 12.7 54.8 56 4.2 39.6
22:20 1023 30.21 852 25.16 12.7 54.8 56 4.1 39.4
22:25 1023 30.21 852 25.16 12.7 54.9 55 4 39.2
22:30 1023 30.21 852 25.16 12.7 54.8 55 3.9 39.1
22:35 1023 30.21 852 25.16 12.7 54.8 55 4 39.1
22:40 1023 30.21 852 25.16 12.6 54.6 56 4.2 39.5
22:45 1023 30.21 852 25.16 12.4 54.4 57 4.2 39.6
22:50 1023 30.21 852 25.16 12.2 54 58 4.3 39.7
22:55 1023 30.21 852 25.16 12.2 53.9 58 4.3 39.8
23:00 1023 30.21 852 25.16 12.2 53.9 58 4.3 39.7
23:05 1023 30.21 852 25.16 12.1 53.9 59 4.4 39.8
23:10 1023 30.21 852 25.16 12.1 53.8 59 4.4 39.9
23:15 1023 30.21 852 25.16 12.1 53.8 59 4.3 39.8
23:20 1023 30.21 852 25.16 12.1 53.8 59 4.4 39.9
23:25 1023 30.21 852 25.16 12.1 53.7 59 4.4 40
23:30 1023 30.21 852 25.16 12.1 53.7 59 4.4 39.9
23:35 1023 30.21 852 25.16 12.1 53.8 59 4.4 39.8
23:40 1023 30.21 852 25.16 12 53.7 59 4.4 39.9
23:45 1023 30.21 852 25.16 12 53.5 59 4.4 39.8
23:50 1023 30.21 852 25.16 11.9 53.5 60 4.4 39.9
23:55 1023 30.21 852 25.16 12 53.5 60 4.4 40
24:00 1023 30.21 852 25.16 11.9 53.3 60 4.5 40.1